KCRO2: Canadian River nr Konowa, OK

Data processed at Fri Dec 08 2017 23:52


All information presented herein is the property of the government of the United States of America and may be revised or deleted at any time without prior notice.
Dissemination of this information without the expressed written consent of the Public Affairs Office, Tulsa District U.S. Army Corps of Engineers is strictly prohibited.
These data are gathered electronically and, as presented, have not undergone any form of quality control. These data are not guaranteed to be valid or correct.
Go to home page.
Go to station list.


Previous Day
Next Day
Current Day


    
SHEF ID:       KCRO2     Canadian River nr Konowa, OK
STATION TYPE:  

                STAGE  RIV-FLOW   VOLTAGE  BAT-LOAD
                   ft       cfs      volt      volt
              Ccp-Rev   Ccp-Rev   Ccp-Rev   Ccp-Rev
(US/Central)
12/06 00:00      9.02       628     12.73     12.41
12/06 01:00      9.02       628     12.65     12.41
12/06 02:00      9.02       628     12.65     12.41
12/06 03:00      9.02       628     12.65     12.41
12/06 04:00      9.02       628     12.57     12.41
12/06 05:00      9.02       628     12.65     12.41
12/06 06:00      9.02       628     12.65     12.41
12/06 07:00      9.03       637     12.65     12.41
12/06 08:00      9.03       637     12.65     12.41
12/06 09:00      9.03       637     12.73     12.41
12/06 10:00      9.03       637     12.89     12.57
12/06 11:00      9.02       628     13.29     12.97
12/06 12:00      9.02       628     13.37     13.13
12/06 13:00      9.03       637     13.53     13.21
12/06 14:00      9.03       637     13.60     13.29
12/06 15:00      9.03       637     13.13     13.05
12/06 16:00      9.03       637     13.05     12.89
12/06 17:00      9.03       637     13.05     12.81
12/06 18:00      9.03       637     12.97     12.73
12/06 19:00      9.03       637     12.97     12.73
12/06 20:00      9.04       647     12.89     12.65
12/06 21:00      9.03       637     12.81     12.65
12/06 22:00      9.04       647     12.81     12.57
12/06 23:00      9.04       647     12.73     12.49